Terminal Aerodrome Forecast
Issued by NWS New Orleans/Baton Rouge, LA

Home | Current Version | Previous Version | Text Only | Print | Product List | Glossary On
Versions: 1 2 3 4 5 6 7 8 9 10 11 12 13 14 15 16
000
FTUS44 KLIX 232300
TAFBTR
TAF
KBTR 232330Z 2400/2424 20008KT P6SM BKN040 BKN250
     FM240600 00000KT P6SM SCT150 SCT250
     FM241500 28004KT P6SM SCT030 BKN050=

USA.gov is the U.S. government's official web portal to all federal, state and local government web resources and services.